Louisiana State University, Louisiana
Current Conditions -  °F | °C
As of 4:53 AM on Monday 20 Oct 2014 (Local Time) from KBTR Reporting Station
Clear Clear  
Wind Chill: 53°   Ceiling: Unl
Heat Index: 53°   Visibility: 10mi
Dew Point: 50°   Wind: 5mph
Humidity: 89%   Direction: 30°NNE
Pressure: 30.04"   Gusts: NA
Location:  30.4089°N, 91.1938°W
Report Text: KBTR 200953Z AUTO 03004KT 10SM CLR 12/10 A3004 RMK AO2 SLP171 T01170100 TSNO $
Loading
Personal Weather Stations






























Interactive Weather Map
Tropical Storm Tracking
New forecast layout! Learn more

10-Day Weather Forecast

Advertisements
Track Severe Weather on mobile